sensor_id;sensor_type;location;lat;lon;timestamp;pressure;altitude;pressure_sealevel;temperature;humidity
5877;BME280;2964;42.144;24.730;2022-12-07T00:01:17;142873.22;;;5.08;100.00
5877;BME280;2964;42.144;24.730;2022-12-07T00:03:47;142869.47;;;5.07;100.00
5877;BME280;2964;42.144;24.730;2022-12-07T00:06:15;142838.22;;;4.94;100.00
5877;BME280;2964;42.144;24.730;2022-12-07T00:08:43;142914.47;;;5.25;100.00
5877;BME280;2964;42.144;24.730;2022-12-07T00:11:11;142890.75;;;5.15;100.00
5877;BME280;2964;42.144;24.730;2022-12-07T00:13:39;142838.22;;;4.94;100.00
5877;BME280;2964;42.144;24.730;2022-12-07T00:16:07;142856.97;;;5.01;100.00
5877;BME280;2964;42.144;24.730;2022-12-07T00:18:34;142835.75;;;4.93;100.00
5877;BME280;2964;42.144;24.730;2022-12-07T00:21:05;142838.22;;;4.94;100.00
5877;BME280;2964;42.144;24.730;2022-12-07T00:23:33;142833.22;;;4.92;100.00
5877;BME280;2964;42.144;24.730;2022-12-07T00:26:05;142820.69;;;4.87;100.00
5877;BME280;2964;42.144;24.730;2022-12-07T00:28:32;142830.75;;;4.91;100.00
5877;BME280;2964;42.144;24.730;2022-12-07T00:31:02;142803.19;;;4.79;100.00
5877;BME280;2964;42.144;24.730;2022-12-07T00:33:28;142839.50;;;4.94;100.00
5877;BME280;2964;42.144;24.730;2022-12-07T00:35:56;142830.75;;;4.91;100.00
5877;BME280;2964;42.144;24.730;2022-12-07T00:38:24;142824.47;;;4.88;100.00
5877;BME280;2964;42.144;24.730;2022-12-07T00:40:55;142829.47;;;4.90;100.00
5877;BME280;2964;42.144;24.730;2022-12-07T00:43:22;142835.75;;;4.93;100.00
5877;BME280;2964;42.144;24.730;2022-12-07T00:45:49;142841.97;;;4.95;100.00
5877;BME280;2964;42.144;24.730;2022-12-07T00:48:15;142834.44;;;4.92;100.00
5877;BME280;2964;42.144;24.730;2022-12-07T00:50:42;142817.00;;;4.85;100.00
5877;BME280;2964;42.144;24.730;2022-12-07T00:53:09;142793.22;;;4.75;100.00
5877;BME280;2964;42.144;24.730;2022-12-07T00:55:37;142830.75;;;4.91;100.00
5877;BME280;2964;42.144;24.730;2022-12-07T00:58:04;142810.72;;;4.82;100.00
5877;BME280;2964;42.144;24.730;2022-12-07T01:00:31;142785.75;;;4.72;100.00
5877;BME280;2964;42.144;24.730;2022-12-07T01:02:59;142778.22;;;4.69;100.00
5877;BME280;2964;42.144;24.730;2022-12-07T01:05:26;142761.94;;;4.62;100.00
5877;BME280;2964;42.144;24.730;2022-12-07T01:07:52;142758.19;;;4.61;100.00
5877;BME280;2964;42.144;24.730;2022-12-07T01:10:19;142733.22;;;4.51;100.00
5877;BME280;2964;42.144;24.730;2022-12-07T01:12:47;142745.75;;;4.56;100.00
5877;BME280;2964;42.144;24.730;2022-12-07T01:15:14;142801.97;;;4.79;100.00
5877;BME280;2964;42.144;24.730;2022-12-07T01:17:41;142823.22;;;4.88;100.00
5877;BME280;2964;42.144;24.730;2022-12-07T01:20:09;142745.75;;;4.56;100.00
5877;BME280;2964;42.144;24.730;2022-12-07T01:22:36;142743.22;;;4.55;100.00
5877;BME280;2964;42.144;24.730;2022-12-07T01:25:04;142735.69;;;4.52;100.00
5877;BME280;2964;42.144;24.730;2022-12-07T01:27:32;142743.22;;;4.55;100.00
5877;BME280;2964;42.144;24.730;2022-12-07T01:30:00;142725.72;;;4.48;100.00
5877;BME280;2964;42.144;24.730;2022-12-07T01:32:27;142718.25;;;4.44;100.00
5877;BME280;2964;42.144;24.730;2022-12-07T01:34:53;142718.25;;;4.44;100.00
5877;BME280;2964;42.144;24.730;2022-12-07T01:37:20;142715.72;;;4.43;100.00
5877;BME280;2964;42.144;24.730;2022-12-07T01:39:48;142710.72;;;4.41;100.00
5877;BME280;2964;42.144;24.730;2022-12-07T01:42:15;142721.97;;;4.46;100.00
5877;BME280;2964;42.144;24.730;2022-12-07T01:48:04;142743.22;;;4.55;100.00
5877;BME280;2964;42.144;24.730;2022-12-07T01:50:32;142743.22;;;4.55;100.00
5877;BME280;2964;42.144;24.730;2022-12-07T01:53:02;142726.94;;;4.48;100.00
5877;BME280;2964;42.144;24.730;2022-12-07T01:55:30;142808.25;;;4.81;100.00
5877;BME280;2964;42.144;24.730;2022-12-07T01:57:57;142766.94;;;4.64;100.00
5877;BME280;2964;42.144;24.730;2022-12-07T02:00:24;142750.72;;;4.58;100.00
5877;BME280;2964;42.144;24.730;2022-12-07T02:02:54;142740.75;;;4.54;100.00
5877;BME280;2964;42.144;24.730;2022-12-07T02:05:24;142740.75;;;4.54;100.00
5877;BME280;2964;42.144;24.730;2022-12-07T02:07:53;142755.72;;;4.60;100.00
5877;BME280;2964;42.144;24.730;2022-12-07T02:10:23;142753.22;;;4.59;100.00
5877;BME280;2964;42.144;24.730;2022-12-07T02:12:54;142750.72;;;4.58;100.00
5877;BME280;2964;42.144;24.730;2022-12-07T02:15:25;142755.72;;;4.60;100.00
5877;BME280;2964;42.144;24.730;2022-12-07T02:18:00;142748.22;;;4.57;100.00
5877;BME280;2964;42.144;24.730;2022-12-07T02:20:30;142741.97;;;4.54;100.00
5877;BME280;2964;42.144;24.730;2022-12-07T02:23:30;142733.22;;;4.51;100.00
5877;BME280;2964;42.144;24.730;2022-12-07T02:26:23;142719.50;;;4.45;100.00
5877;BME280;2964;42.144;24.730;2022-12-07T02:29:07;142660.75;;;4.21;100.00
5877;BME280;2964;42.144;24.730;2022-12-07T02:31:37;142710.72;;;4.41;100.00
5877;BME280;2964;42.144;24.730;2022-12-07T02:34:14;142745.75;;;4.56;100.00
5877;BME280;2964;42.144;24.730;2022-12-07T02:36:49;142729.47;;;4.49;100.00
5877;BME280;2964;42.144;24.730;2022-12-07T02:39:25;142714.50;;;4.43;100.00
5877;BME280;2964;42.144;24.730;2022-12-07T02:41:58;142798.19;;;4.77;100.00
5877;BME280;2964;42.144;24.730;2022-12-07T02:44:30;142764.47;;;4.63;100.00
5877;BME280;2964;42.144;24.730;2022-12-07T02:47:01;142746.97;;;4.56;100.00
5877;BME280;2964;42.144;24.730;2022-12-07T02:49:30;142748.22;;;4.57;100.00
5877;BME280;2964;42.144;24.730;2022-12-07T02:51:57;142720.72;;;4.45;100.00
5877;BME280;2964;42.144;24.730;2022-12-07T02:54:24;142718.25;;;4.44;100.00
5877;BME280;2964;42.144;24.730;2022-12-07T02:56:55;142714.50;;;4.43;100.00
5877;BME280;2964;42.144;24.730;2022-12-07T02:59:35;142751.97;;;4.58;100.00
5877;BME280;2964;42.144;24.730;2022-12-07T03:02:15;142738.22;;;4.53;100.00
5877;BME280;2964;42.144;24.730;2022-12-07T03:04:51;142733.22;;;4.51;100.00
5877;BME280;2964;42.144;24.730;2022-12-07T03:07:28;142743.22;;;4.55;100.00
5877;BME280;2964;42.144;24.730;2022-12-07T03:10:02;142755.72;;;4.60;100.00
5877;BME280;2964;42.144;24.730;2022-12-07T03:12:34;142868.22;;;5.06;100.00
5877;BME280;2964;42.144;24.730;2022-12-07T03:15:08;142823.22;;;4.88;100.00
5877;BME280;2964;42.144;24.730;2022-12-07T03:17:38;142903.25;;;5.20;100.00
5877;BME280;2964;42.144;24.730;2022-12-07T03:20:09;142898.25;;;5.18;100.00
5877;BME280;2964;42.144;24.730;2022-12-07T03:22:39;142878.22;;;5.10;100.00
5877;BME280;2964;42.144;24.730;2022-12-07T03:25:10;142865.72;;;5.05;100.00
5877;BME280;2964;42.144;24.730;2022-12-07T03:27:41;142883.22;;;5.12;100.00
5877;BME280;2964;42.144;24.730;2022-12-07T03:30:16;142970.78;;;5.48;100.00
5877;BME280;2964;42.144;24.730;2022-12-07T03:32:45;142970.78;;;5.48;100.00
5877;BME280;2964;42.144;24.730;2022-12-07T03:35:19;142932.00;;;5.32;100.00
5877;BME280;2964;42.144;24.730;2022-12-07T03:37:50;142913.25;;;5.25;100.00
5877;BME280;2964;42.144;24.730;2022-12-07T03:40:22;142913.25;;;5.25;100.00
5877;BME280;2964;42.144;24.730;2022-12-07T03:42:52;142888.22;;;5.14;100.00
5877;BME280;2964;42.144;24.730;2022-12-07T03:45:25;142888.22;;;5.14;100.00
5877;BME280;2964;42.144;24.730;2022-12-07T03:48:02;142924.47;;;5.29;100.00
5877;BME280;2964;42.144;24.730;2022-12-07T03:50:38;142967.03;;;5.47;100.00
5877;BME280;2964;42.144;24.730;2022-12-07T03:53:11;142965.78;;;5.46;100.00
5877;BME280;2964;42.144;24.730;2022-12-07T03:55:42;142863.25;;;5.04;100.00
5877;BME280;2964;42.144;24.730;2022-12-07T03:58:12;142858.25;;;5.02;100.00
5877;BME280;2964;42.144;24.730;2022-12-07T04:00:42;142843.22;;;4.96;100.00
5877;BME280;2964;42.144;24.730;2022-12-07T04:03:09;142849.50;;;4.98;100.00
5877;BME280;2964;42.144;24.730;2022-12-07T04:05:37;142789.44;;;4.74;100.00
5877;BME280;2964;42.144;24.730;2022-12-07T04:08:04;142765.72;;;4.64;100.00
5877;BME280;2964;42.144;24.730;2022-12-07T04:10:31;142865.72;;;5.05;100.00
5877;BME280;2964;42.144;24.730;2022-12-07T04:12:58;142800.72;;;4.78;100.00
5877;BME280;2964;42.144;24.730;2022-12-07T04:15:25;142776.97;;;4.69;100.00
5877;BME280;2964;42.144;24.730;2022-12-07T04:17:53;142670.75;;;4.25;100.00
5877;BME280;2964;42.144;24.730;2022-12-07T04:20:20;142755.72;;;4.60;100.00
5877;BME280;2964;42.144;24.730;2022-12-07T04:22:47;142763.25;;;4.63;100.00
5877;BME280;2964;42.144;24.730;2022-12-07T04:25:14;142759.47;;;4.61;100.00
5877;BME280;2964;42.144;24.730;2022-12-07T04:27:40;142789.44;;;4.74;100.00
5877;BME280;2964;42.144;24.730;2022-12-07T04:30:08;142732.00;;;4.50;100.00
5877;BME280;2964;42.144;24.730;2022-12-07T04:32:35;142745.75;;;4.56;100.00
5877;BME280;2964;42.144;24.730;2022-12-07T04:35:03;142733.22;;;4.51;100.00
5877;BME280;2964;42.144;24.730;2022-12-07T04:37:30;142714.50;;;4.43;100.00
5877;BME280;2964;42.144;24.730;2022-12-07T04:39:57;142704.47;;;4.39;100.00
5877;BME280;2964;42.144;24.730;2022-12-07T04:42:24;142704.47;;;4.39;100.00
5877;BME280;2964;42.144;24.730;2022-12-07T04:44:50;142708.22;;;4.40;100.00
5877;BME280;2964;42.144;24.730;2022-12-07T04:47:17;142740.75;;;4.54;100.00
5877;BME280;2964;42.144;24.730;2022-12-07T04:49:44;142701.97;;;4.38;100.00
5877;BME280;2964;42.144;24.730;2022-12-07T04:52:12;142689.47;;;4.33;100.00
5877;BME280;2964;42.144;24.730;2022-12-07T04:54:39;142701.97;;;4.38;100.00
5877;BME280;2964;42.144;24.730;2022-12-07T04:57:05;142695.75;;;4.35;100.00
5877;BME280;2964;42.144;24.730;2022-12-07T04:59:32;142749.44;;;4.57;100.00
5877;BME280;2964;42.144;24.730;2022-12-07T05:01:59;142743.22;;;4.55;100.00
5877;BME280;2964;42.144;24.730;2022-12-07T05:04:25;142710.72;;;4.41;100.00
5877;BME280;2964;42.144;24.730;2022-12-07T05:06:52;142703.22;;;4.38;100.00
5877;BME280;2964;42.144;24.730;2022-12-07T05:09:20;142669.50;;;4.24;100.00
5877;BME280;2964;42.144;24.730;2022-12-07T05:11:47;142695.75;;;4.35;100.00
5877;BME280;2964;42.144;24.730;2022-12-07T05:14:16;142700.75;;;4.37;100.00
5877;BME280;2964;42.144;24.730;2022-12-07T05:16:45;142689.47;;;4.33;100.00
5877;BME280;2964;42.144;24.730;2022-12-07T05:19:12;142660.75;;;4.21;100.00
5877;BME280;2964;42.144;24.730;2022-12-07T05:21:39;142738.22;;;4.53;100.00
5877;BME280;2964;42.144;24.730;2022-12-07T05:24:07;142705.75;;;4.39;100.00
5877;BME280;2964;42.144;24.730;2022-12-07T05:26:35;142671.97;;;4.25;100.00
5877;BME280;2964;42.144;24.730;2022-12-07T05:29:02;142730.72;;;4.50;100.00
5877;BME280;2964;42.144;24.730;2022-12-07T05:31:28;142818.22;;;4.86;100.00
5877;BME280;2964;42.144;24.730;2022-12-07T05:33:55;142770.72;;;4.66;100.00
5877;BME280;2964;42.144;24.730;2022-12-07T05:36:22;142738.22;;;4.53;100.00
5877;BME280;2964;42.144;24.730;2022-12-07T05:38:49;142765.72;;;4.64;100.00
5877;BME280;2964;42.144;24.730;2022-12-07T05:41:19;142850.72;;;4.99;100.00
5877;BME280;2964;42.144;24.730;2022-12-07T05:44:05;142853.25;;;5.00;100.00
5877;BME280;2964;42.144;24.730;2022-12-07T05:46:32;142781.97;;;4.71;100.00
5877;BME280;2964;42.144;24.730;2022-12-07T05:48:59;142645.75;;;4.15;100.00
5877;BME280;2964;42.144;24.730;2022-12-07T05:51:26;142730.72;;;4.50;100.00
5877;BME280;2964;42.144;24.730;2022-12-07T05:53:53;142694.47;;;4.35;100.00
5877;BME280;2964;42.144;24.730;2022-12-07T05:56:20;142825.69;;;4.89;100.00
5877;BME280;2964;42.144;24.730;2022-12-07T05:58:47;142798.19;;;4.77;100.00
5877;BME280;2964;42.144;24.730;2022-12-07T06:01:32;142795.72;;;4.76;100.00
5877;BME280;2964;42.144;24.730;2022-12-07T06:03:59;142741.97;;;4.54;100.00
5877;BME280;2964;42.144;24.730;2022-12-07T06:06:26;142766.94;;;4.64;100.00
5877;BME280;2964;42.144;24.730;2022-12-07T06:08:52;142780.69;;;4.70;100.00
5877;BME280;2964;42.144;24.730;2022-12-07T06:11:19;142784.44;;;4.72;100.00
5877;BME280;2964;42.144;24.730;2022-12-07T06:14:03;142795.72;;;4.76;100.00
5877;BME280;2964;42.144;24.730;2022-12-07T06:16:32;142800.72;;;4.78;100.00
5877;BME280;2964;42.144;24.730;2022-12-07T06:18:58;142814.47;;;4.84;100.00
5877;BME280;2964;42.144;24.730;2022-12-07T06:21:25;142843.22;;;4.96;100.00
5877;BME280;2964;42.144;24.730;2022-12-07T06:23:52;142868.22;;;5.06;100.00
5877;BME280;2964;42.144;24.730;2022-12-07T06:26:19;142855.72;;;5.01;100.00
5877;BME280;2964;42.144;24.730;2022-12-07T06:28:46;142883.22;;;5.12;100.00
5877;BME280;2964;42.144;24.730;2022-12-07T06:31:13;142888.22;;;5.14;100.00
5877;BME280;2964;42.144;24.730;2022-12-07T06:33:41;142891.97;;;5.16;100.00
5877;BME280;2964;42.144;24.730;2022-12-07T06:36:08;142878.22;;;5.10;100.00
5877;BME280;2964;42.144;24.730;2022-12-07T06:38:34;142893.22;;;5.16;100.00
5877;BME280;2964;42.144;24.730;2022-12-07T06:41:01;142910.72;;;5.23;100.00
5877;BME280;2964;42.144;24.730;2022-12-07T06:43:28;142989.53;;;5.56;100.00
5877;BME280;2964;42.144;24.730;2022-12-07T06:45:55;142992.00;;;5.57;100.00
5877;BME280;2964;42.144;24.730;2022-12-07T06:48:22;142973.25;;;5.49;100.00
5877;BME280;2964;42.144;24.730;2022-12-07T06:50:51;142947.00;;;5.38;100.00
5877;BME280;2964;42.144;24.730;2022-12-07T06:53:17;143018.28;;;5.68;100.00
5877;BME280;2964;42.144;24.730;2022-12-07T06:55:44;143043.34;;;5.78;100.00
5877;BME280;2964;42.144;24.730;2022-12-07T06:58:11;143079.63;;;5.93;100.00
5877;BME280;2964;42.144;24.730;2022-12-07T07:00:38;143138.47;;;6.17;100.00
5877;BME280;2964;42.144;24.730;2022-12-07T07:03:04;143229.84;;;6.54;100.00
5877;BME280;2964;42.144;24.730;2022-12-07T07:05:31;143183.53;;;6.35;100.00
5877;BME280;2964;42.144;24.730;2022-12-07T07:08:00;143112.19;;;6.06;100.00
5877;BME280;2964;42.144;24.730;2022-12-07T07:10:26;143110.94;;;6.06;100.00
5877;BME280;2964;42.144;24.730;2022-12-07T07:12:53;143202.31;;;6.43;100.00
5877;BME280;2964;42.144;24.730;2022-12-07T07:15:20;143266.13;;;6.69;100.00
5877;BME280;2964;42.144;24.730;2022-12-07T07:17:47;143287.44;;;6.78;100.00
5877;BME280;2964;42.144;24.730;2022-12-07T07:20:14;143078.38;;;5.92;100.00
5877;BME280;2964;42.144;24.730;2022-12-07T07:22:41;143254.91;;;6.65;100.00
5877;BME280;2964;42.144;24.730;2022-12-07T07:25:09;143306.22;;;6.86;100.00
5877;BME280;2964;42.144;24.730;2022-12-07T07:27:36;143318.75;;;6.91;100.00
5877;BME280;2964;42.144;24.730;2022-12-07T07:30:04;143371.38;;;7.12;100.00
5877;BME280;2964;42.144;24.730;2022-12-07T07:32:31;143431.47;;;7.37;100.00
5877;BME280;2964;42.144;24.730;2022-12-07T07:34:57;143506.66;;;7.68;100.00
5877;BME280;2964;42.144;24.730;2022-12-07T07:37:25;143403.91;;;7.26;100.00
5877;BME280;2964;42.144;24.730;2022-12-07T07:39:52;143456.56;;;7.47;100.00
5877;BME280;2964;42.144;24.730;2022-12-07T07:42:20;143546.78;;;7.84;100.00
5877;BME280;2964;42.144;24.730;2022-12-07T07:44:47;143553.03;;;7.87;100.00
5877;BME280;2964;42.144;24.730;2022-12-07T07:47:14;143551.78;;;7.86;100.00
5877;BME280;2964;42.144;24.730;2022-12-07T07:49:41;143586.88;;;8.01;100.00
5877;BME280;2964;42.144;24.730;2022-12-07T07:52:08;143481.59;;;7.58;100.00
5877;BME280;2964;42.144;24.730;2022-12-07T07:54:34;143516.69;;;7.72;100.00
5877;BME280;2964;42.144;24.730;2022-12-07T07:57:01;143469.09;;;7.52;100.00
5877;BME280;2964;42.144;24.730;2022-12-07T07:59:29;143524.22;;;7.75;100.00
5877;BME280;2964;42.144;24.730;2022-12-07T08:01:56;143489.13;;;7.61;100.00
5877;BME280;2964;42.144;24.730;2022-12-07T08:04:23;143501.66;;;7.66;100.00
5877;BME280;2964;42.144;24.730;2022-12-07T08:06:49;143576.81;;;7.97;100.00
5877;BME280;2964;42.144;24.730;2022-12-07T08:09:16;143515.44;;;7.71;100.00
5877;BME280;2964;42.144;24.730;2022-12-07T08:11:43;143515.44;;;7.71;100.00
5877;BME280;2964;42.144;24.730;2022-12-07T08:14:11;143586.88;;;8.01;100.00
5877;BME280;2964;42.144;24.730;2022-12-07T08:16:39;143736.13;;;8.62;99.19
5877;BME280;2964;42.144;24.730;2022-12-07T08:19:06;143798.84;;;8.87;97.42
5877;BME280;2964;42.144;24.730;2022-12-07T08:21:33;143806.34;;;8.91;98.54
5877;BME280;2964;42.144;24.730;2022-12-07T08:23:59;143911.75;;;9.34;96.96
5877;BME280;2964;42.144;24.730;2022-12-07T08:26:26;143780.03;;;8.80;95.72
5877;BME280;2964;42.144;24.730;2022-12-07T08:28:53;143920.53;;;9.37;95.67
5877;BME280;2964;42.144;24.730;2022-12-07T08:31:19;143936.81;;;9.44;93.84
5877;BME280;2964;42.144;24.730;2022-12-07T08:33:48;144024.69;;;9.80;94.08
5877;BME280;2964;42.144;24.730;2022-12-07T08:36:16;144112.56;;;10.16;92.33
5877;BME280;2964;42.144;24.730;2022-12-07T08:38:43;143870.34;;;9.17;93.72
5877;BME280;2964;42.144;24.730;2022-12-07T08:41:10;143813.88;;;8.94;96.04
5877;BME280;2964;42.144;24.730;2022-12-07T08:43:37;143984.53;;;9.63;94.48
5877;BME280;2964;42.144;24.730;2022-12-07T08:46:08;144137.69;;;10.26;92.59
5877;BME280;2964;42.144;24.730;2022-12-07T08:48:38;143923.00;;;9.38;93.19
5877;BME280;2964;42.144;24.730;2022-12-07T08:51:07;143887.88;;;9.24;95.35
5877;BME280;2964;42.144;24.730;2022-12-07T08:53:35;144005.88;;;9.72;93.47
5877;BME280;2964;42.144;24.730;2022-12-07T08:56:02;144073.66;;;10.00;93.87
5877;BME280;2964;42.144;24.730;2022-12-07T08:58:30;144177.94;;;10.42;92.72
5877;BME280;2964;42.144;24.730;2022-12-07T09:00:56;144127.66;;;10.22;92.73
5877;BME280;2964;42.144;24.730;2022-12-07T09:03:23;144291.00;;;10.89;91.10
5877;BME280;2964;42.144;24.730;2022-12-07T09:05:50;144348.78;;;11.12;89.84
5877;BME280;2964;42.144;24.730;2022-12-07T09:08:18;144306.06;;;10.95;88.55
5877;BME280;2964;42.144;24.730;2022-12-07T09:10:46;144146.50;;;10.30;91.08
5877;BME280;2964;42.144;24.730;2022-12-07T09:13:13;144345.03;;;11.11;89.15
5877;BME280;2964;42.144;24.730;2022-12-07T09:15:40;144497.06;;;11.73;86.34
5877;BME280;2964;42.144;24.730;2022-12-07T09:18:07;144767.56;;;12.83;83.18
5877;BME280;2964;42.144;24.730;2022-12-07T09:20:33;144845.63;;;13.15;80.56
5877;BME280;2964;42.144;24.730;2022-12-07T09:23:00;144807.81;;;13.00;81.27
5877;BME280;2964;42.144;24.730;2022-12-07T09:25:28;145001.75;;;13.79;78.50
5877;BME280;2964;42.144;24.730;2022-12-07T09:27:56;145336.94;;;15.15;74.62
5877;BME280;2964;42.144;24.730;2022-12-07T09:30:23;145826.50;;;17.14;67.94
5877;BME280;2964;42.144;24.730;2022-12-07T09:32:53;146052.63;;;18.06;63.71
5877;BME280;2964;42.144;24.730;2022-12-07T09:35:20;146266.22;;;18.93;61.25
5877;BME280;2964;42.144;24.730;2022-12-07T09:37:47;146707.78;;;20.72;55.79
5877;BME280;2964;42.144;24.730;2022-12-07T09:40:15;146392.66;;;19.44;57.50
5877;BME280;2964;42.144;24.730;2022-12-07T09:42:47;146361.06;;;19.32;57.38
5877;BME280;2964;42.144;24.730;2022-12-07T09:45:17;146210.56;;;18.70;58.87
5877;BME280;2964;42.144;24.730;2022-12-07T09:47:45;146364.84;;;19.33;57.08
5877;BME280;2964;42.144;24.730;2022-12-07T09:50:14;146374.97;;;19.37;56.61
5877;BME280;2964;42.144;24.730;2022-12-07T09:52:43;146098.09;;;18.25;58.22
5877;BME280;2964;42.144;24.730;2022-12-07T09:55:13;145735.56;;;16.77;63.43
5877;BME280;2964;42.144;24.730;2022-12-07T09:57:40;145435.28;;;15.55;66.24
5877;BME280;2964;42.144;24.730;2022-12-07T10:00:14;145097.47;;;14.18;69.42
5877;BME280;2964;42.144;24.730;2022-12-07T10:02:42;144854.44;;;13.19;73.51
5877;BME280;2964;42.144;24.730;2022-12-07T10:05:13;144826.69;;;13.07;74.23
5877;BME280;2964;42.144;24.730;2022-12-07T10:07:40;144800.31;;;12.97;74.29
5877;BME280;2964;42.144;24.730;2022-12-07T10:10:14;144514.69;;;11.80;77.90
5877;BME280;2964;42.144;24.730;2022-12-07T10:13:06;144519.72;;;11.82;79.82
5877;BME280;2964;42.144;24.730;2022-12-07T10:15:56;144465.69;;;11.60;80.89
5877;BME280;2964;42.144;24.730;2022-12-07T10:18:29;144533.59;;;11.88;80.61
5877;BME280;2964;42.144;24.730;2022-12-07T10:21:01;144450.56;;;11.54;82.35
5877;BME280;2964;42.144;24.730;2022-12-07T10:23:29;144416.66;;;11.40;82.41
5877;BME280;2964;42.144;24.730;2022-12-07T10:25:55;144445.56;;;11.52;82.41
5877;BME280;2964;42.144;24.730;2022-12-07T10:28:22;144412.88;;;11.38;81.59
5877;BME280;2964;42.144;24.730;2022-12-07T10:30:57;144390.25;;;11.29;82.84
5877;BME280;2964;42.144;24.730;2022-12-07T10:33:29;144278.41;;;10.84;84.54
5877;BME280;2964;42.144;24.730;2022-12-07T10:35:57;144285.97;;;10.87;84.57
5877;BME280;2964;42.144;24.730;2022-12-07T10:38:25;144176.66;;;10.42;85.62
5877;BME280;2964;42.144;24.730;2022-12-07T10:41:03;144370.13;;;11.21;84.57
5877;BME280;2964;42.144;24.730;2022-12-07T10:43:30;144432.97;;;11.47;83.15
5877;BME280;2964;42.144;24.730;2022-12-07T10:49:08;144322.41;;;11.01;83.08
5877;BME280;2964;42.144;24.730;2022-12-07T10:51:45;144304.81;;;10.94;83.84
5877;BME280;2964;42.144;24.730;2022-12-07T10:54:20;144347.50;;;11.12;83.84
5877;BME280;2964;42.144;24.730;2022-12-07T10:57:01;144370.13;;;11.21;84.03
5877;BME280;2964;42.144;24.730;2022-12-07T10:59:44;144367.63;;;11.20;83.63
5877;BME280;2964;42.144;24.730;2022-12-07T11:02:25;144252.03;;;10.73;85.69
5877;BME280;2964;42.144;24.730;2022-12-07T11:05:04;144191.75;;;10.48;87.02
5877;BME280;2964;42.144;24.730;2022-12-07T11:07:41;144273.41;;;10.81;86.60
5877;BME280;2964;42.144;24.730;2022-12-07T11:10:13;144291.00;;;10.89;86.37
5877;BME280;2964;42.144;24.730;2022-12-07T11:12:49;144306.06;;;10.95;86.00
5877;BME280;2964;42.144;24.730;2022-12-07T11:15:24;144326.19;;;11.03;85.79
5877;BME280;2964;42.144;24.730;2022-12-07T11:18:01;144341.25;;;11.09;84.37
5877;BME280;2964;42.144;24.730;2022-12-07T11:20:39;144345.03;;;11.11;85.31
5877;BME280;2964;42.144;24.730;2022-12-07T11:23:18;144341.25;;;11.09;84.97
5877;BME280;2964;42.144;24.730;2022-12-07T11:25:54;144331.19;;;11.05;85.62
5877;BME280;2964;42.144;24.730;2022-12-07T11:28:38;144406.56;;;11.36;84.24
5877;BME280;2964;42.144;24.730;2022-12-07T11:31:13;144412.88;;;11.38;83.56
5877;BME280;2964;42.144;24.730;2022-12-07T11:33:49;144430.50;;;11.46;83.09
5877;BME280;2964;42.144;24.730;2022-12-07T11:36:33;144440.53;;;11.50;82.58
5877;BME280;2964;42.144;24.730;2022-12-07T11:39:04;144409.09;;;11.37;82.97
5877;BME280;2964;42.144;24.730;2022-12-07T11:41:37;144444.31;;;11.51;82.76
5877;BME280;2964;42.144;24.730;2022-12-07T11:44:06;144458.13;;;11.57;82.56
5877;BME280;2964;42.144;24.730;2022-12-07T11:46:46;144412.88;;;11.38;83.76
5877;BME280;2964;42.144;24.730;2022-12-07T11:49:23;144406.56;;;11.36;83.21
5877;BME280;2964;42.144;24.730;2022-12-07T11:51:57;144473.19;;;11.63;82.99
5877;BME280;2964;42.144;24.730;2022-12-07T11:54:29;144463.16;;;11.59;82.85
5877;BME280;2964;42.144;24.730;2022-12-07T11:56:59;144478.22;;;11.65;82.25
5877;BME280;2964;42.144;24.730;2022-12-07T11:59:32;144404.09;;;11.35;83.13
5877;BME280;2964;42.144;24.730;2022-12-07T12:02:11;144340.00;;;11.09;84.83
5877;BME280;2964;42.144;24.730;2022-12-07T12:04:49;144455.59;;;11.56;83.66
5877;BME280;2964;42.144;24.730;2022-12-07T12:07:23;144470.72;;;11.62;83.53
5877;BME280;2964;42.144;24.730;2022-12-07T12:09:54;144493.34;;;11.71;82.46
5877;BME280;2964;42.144;24.730;2022-12-07T12:12:35;144454.34;;;11.55;82.01
5877;BME280;2964;42.144;24.730;2022-12-07T12:15:21;144411.63;;;11.38;82.36
5877;BME280;2964;42.144;24.730;2022-12-07T12:20:49;144478.22;;;11.65;82.45
5877;BME280;2964;42.144;24.730;2022-12-07T12:23:21;144505.88;;;11.76;82.23
5877;BME280;2964;42.144;24.730;2022-12-07T12:25:51;144478.22;;;11.65;82.54
5877;BME280;2964;42.144;24.730;2022-12-07T12:28:23;144473.19;;;11.63;82.78
5877;BME280;2964;42.144;24.730;2022-12-07T12:31:12;144473.19;;;11.63;82.97
5877;BME280;2964;42.144;24.730;2022-12-07T12:33:43;144474.44;;;11.64;82.69
5877;BME280;2964;42.144;24.730;2022-12-07T12:36:21;144551.19;;;11.95;81.70
5877;BME280;2964;42.144;24.730;2022-12-07T12:38:51;144533.59;;;11.88;81.56
5877;BME280;2964;42.144;24.730;2022-12-07T12:41:58;144561.28;;;11.99;81.52
5877;BME280;2964;42.144;24.730;2022-12-07T12:47:52;144544.91;;;11.92;81.44
5877;BME280;2964;42.144;24.730;2022-12-07T12:50:22;144415.38;;;11.39;83.05
5877;BME280;2964;42.144;24.730;2022-12-07T12:53:15;144479.53;;;11.66;83.05
5877;BME280;2964;42.144;24.730;2022-12-07T12:56:12;144412.88;;;11.38;83.24
5877;BME280;2964;42.144;24.730;2022-12-07T12:58:47;144478.22;;;11.65;82.71
5877;BME280;2964;42.144;24.730;2022-12-07T13:01:43;144415.38;;;11.39;83.29
5877;BME280;2964;42.144;24.730;2022-12-07T13:07:50;144492.06;;;11.71;82.45
5877;BME280;2964;42.144;24.730;2022-12-07T13:10:38;144473.19;;;11.63;83.08
5877;BME280;2964;42.144;24.730;2022-12-07T13:13:30;144360.09;;;11.17;84.51
5877;BME280;2964;42.144;24.730;2022-12-07T13:18:57;144426.72;;;11.44;84.04
5877;BME280;2964;42.144;24.730;2022-12-07T13:21:43;144445.56;;;11.52;83.61
5877;BME280;2964;42.144;24.730;2022-12-07T13:24:12;144417.91;;;11.40;83.38
5877;BME280;2964;42.144;24.730;2022-12-07T13:26:42;144372.66;;;11.22;84.10
5877;BME280;2964;42.144;24.730;2022-12-07T13:29:12;144436.75;;;11.48;83.24
5877;BME280;2964;42.144;24.730;2022-12-07T13:31:41;144432.97;;;11.47;82.74
5877;BME280;2964;42.144;24.730;2022-12-07T13:34:27;144368.88;;;11.20;83.34
5877;BME280;2964;42.144;24.730;2022-12-07T13:36:56;144402.84;;;11.34;83.47